Terminal Aerodrome Forecast
Issued by NWS Quad Cities IA IL

Home | Current Version | Previous Version | Text Only | Print | Product List | Glossary On
Versions: 1 2 3 4 5 6 7 8 9 10 11 12 13 14 15 16 17
000
FTUS43 KDVN 161700
TAFMLI
TAF
KMLI 161720Z 1618/1718 30020G27KT P6SM OVC015
     FM162200 30017G22KT P6SM OVC015
     FM170200 30015KT P6SM OVC015
     FM170900 30011KT P6SM SCT018
     FM171500 31009KT P6SM FEW030=

USA.gov is the U.S. government's official web portal to all federal, state and local government web resources and services.